Time;durP1;ratioP1;P1;durP2;ratioP2;P2;SDS_P1;SDS_P2;PMS_P1;PMS_P2;Temp;Humidity;BMP_temperature;BMP_pressure;BME280_temperature;BME280_humidity;BME280_pressure;Samples;Min_cycle;Max_cycle;Signal;HPM_P1;HPM_P2
2022/04/13 00:01:40;;;;;;;4.70;2.33;;;17.60;82.50;;;17.58;40.93;100769.19;4808365;29;98742;-64
2022/04/13 00:04:07;;;;;;;2.87;1.83;;;17.60;87.90;;;17.57;39.90;100778.16;4777448;29;98925;-59
2022/04/13 00:06:38;;;;;;;1.50;1.40;;;17.60;83.80;;;17.56;40.13;100771.97;4806908;29;96851;-60
2022/04/13 00:09:08;;;;;;;1.77;1.20;;;17.50;83.00;;;17.57;39.88;100762.16;4805028;29;99254;-59
2022/04/13 00:11:34;;;;;;;1.50;1.27;;;17.60;82.50;;;17.60;39.64;100761.94;4806379;29;97302;-60
2022/04/13 00:14:01;;;;;;;1.33;1.23;;;17.60;82.50;;;17.61;39.62;100769.00;4805634;29;97356;-60
2022/04/13 00:16:28;;;;;;;2.43;2.03;;;17.70;82.90;;;17.60;39.93;100767.28;4808053;29;99146;-60
2022/04/13 00:18:54;;;;;;;8.87;3.47;;;17.60;84.20;;;17.57;40.81;100775.47;4805034;29;97536;-60
2022/04/13 00:21:20;;;;;;;1.57;1.40;;;17.60;88.50;;;17.55;39.69;100760.44;4813117;29;99092;-59
2022/04/13 00:23:46;;;;;;;1.63;1.27;;;17.60;82.60;;;17.58;39.75;100764.72;4805452;29;116812;-60
2022/04/13 00:26:12;;;;;;;3.00;1.60;;;17.60;82.40;;;17.61;39.60;100763.66;4822934;29;101868;-60
2022/04/13 00:28:38;;;;;;;4.40;3.07;;;17.60;82.10;;;17.61;41.88;100769.84;4810043;29;97675;-60
2022/04/13 00:31:04;;;;;;;2.47;1.60;;;17.60;88.50;;;17.57;40.54;100768.34;4807534;29;102906;-58
2022/04/13 00:33:29;;;;;;;1.40;1.30;;;17.60;89.30;;;17.53;39.80;100767.69;4808625;29;97572;-60
2022/04/13 00:35:56;;;;;;;1.97;1.60;;;17.50;84.00;;;17.52;40.04;100771.31;4807854;29;121964;-59
2022/04/13 00:38:22;;;;;;;4.60;2.60;;;17.50;83.20;;;17.48;40.87;100775.09;4812468;29;113529;-60
2022/04/13 00:40:49;;;;;;;2.53;2.00;;;17.50;89.30;;;17.46;40.08;100771.66;4808204;29;97661;-60
2022/04/13 00:43:15;;;;;;;1.83;1.57;;;17.40;83.30;;;17.48;40.16;100767.09;4824337;29;98199;-60
2022/04/13 00:45:48;;;;;;;1.47;1.33;;;17.50;83.50;;;17.47;39.93;100773.38;4843571;28;96684;-60
2022/04/13 00:48:29;;;;;;;2.60;2.20;;;17.50;84.80;;;17.48;40.19;100774.22;4828308;28;97216;-60
2022/04/13 00:50:55;;;;;;;2.73;1.73;;;17.50;84.80;;;17.44;40.27;100780.72;4813038;29;97674;-60
2022/04/13 00:53:23;;;;;;;1.70;1.60;;;17.40;85.30;;;17.42;40.88;100786.16;4825689;29;97381;-59
2022/04/13 00:55:54;;;;;;;2.03;1.60;;;17.40;88.50;;;17.40;40.01;100776.53;4815719;29;97563;-59
2022/04/13 00:58:22;;;;;;;1.57;1.40;;;17.40;83.70;;;17.42;40.01;100786.16;4820613;28;97315;-59
2022/04/13 01:00:49;;;;;;;1.60;1.50;;;17.40;83.30;;;17.43;40.06;100787.88;4821625;28;97482;-59
2022/04/13 01:03:18;;;;;;;2.67;1.60;;;17.40;84.30;;;17.42;40.08;100786.16;4829069;28;96896;-59
2022/04/13 01:05:49;;;;;;;2.17;1.93;;;17.40;84.30;;;17.43;40.75;100787.88;4822388;29;97293;-60
2022/04/13 01:08:17;;;;;;;1.53;1.43;;;17.40;86.40;;;17.40;40.48;100788.06;4828003;29;96952;-59
2022/04/13 01:10:45;;;;;;;7.13;4.13;;;17.40;88.30;;;17.36;41.90;100789.22;4823465;29;97663;-60
2022/04/13 01:13:16;;;;;;;1.73;1.47;;;17.30;90.90;;;17.33;40.47;100792.03;4815260;29;97373;-58
2022/04/13 01:15:42;;;;;;;1.70;1.60;;;17.20;85.50;;;17.35;40.24;100787.47;4821544;29;96879;-60
2022/04/13 01:18:08;;;;;;;2.43;1.83;;;17.30;84.30;;;17.36;40.69;100786.53;4826555;28;97265;-60
2022/04/13 01:20:38;;;;;;;4.50;3.10;;;17.30;87.80;;;17.32;41.37;100801.00;4824468;29;97406;-60
2022/04/13 01:23:03;;;;;;;1.70;1.60;;;17.20;90.70;;;17.33;40.46;100797.38;4819463;29;100118;-59
2022/04/13 01:25:29;;;;;;;1.77;1.60;;;17.20;84.40;;;17.37;40.35;100798.91;4824793;29;108175;-60
2022/04/13 01:27:55;;;;;;;2.13;1.80;;;17.30;83.90;;;17.40;40.38;100801.38;4823257;29;96954;-60
2022/04/13 01:30:24;;;;;;;2.47;1.60;;;17.40;83.60;;;17.45;40.40;100801.09;4824628;29;126185;-60
2022/04/13 01:32:53;;;;;;;2.07;1.73;;;17.50;83.80;;;17.47;40.46;100800.03;4825280;28;97078;-59
2022/04/13 01:35:19;;;;;;;2.27;1.60;;;17.50;83.90;;;17.48;40.24;100801.75;4831233;28;97446;-59
2022/04/13 01:37:45;;;;;;;1.57;1.47;;;17.50;83.30;;;17.50;40.03;100807.88;4825161;28;96761;-58
2022/04/13 01:40:11;;;;;;;1.67;1.50;;;17.50;83.50;;;17.51;40.04;100822.06;4820043;29;97598;-60
2022/04/13 01:42:37;;;;;;;1.80;1.60;;;17.50;83.60;;;17.53;40.20;100818.34;4826011;29;114010;-59
2022/04/13 01:45:05;;;;;;;1.60;1.50;;;17.50;82.90;;;17.53;40.31;100815.69;4824843;29;97998;-59
2022/04/13 01:47:31;;;;;;;1.90;1.63;;;17.50;83.30;;;17.52;40.38;100813.13;4822983;29;96812;-60
2022/04/13 01:49:58;;;;;;;1.90;1.70;;;17.50;85.50;;;17.52;39.88;100819.31;4822277;28;120207;-60
2022/04/13 01:52:24;;;;;;;2.17;1.43;;;17.50;83.10;;;17.51;40.28;100814.06;4826722;29;97234;-60
2022/04/13 01:54:49;;;;;;;1.93;1.53;;;17.50;83.50;;;17.53;40.01;100809.50;4821669;29;98503;-58
2022/04/13 01:57:15;;;;;;;1.77;1.63;;;17.50;82.90;;;17.55;39.83;100820.91;4826253;28;97455;-60
2022/04/13 01:59:41;;;;;;;2.30;1.53;;;17.60;82.80;;;17.54;40.16;100822.72;4816804;28;105513;-61
2022/04/13 02:02:09;;;;;;;1.83;1.70;;;17.60;83.30;;;17.53;40.10;100821.00;4817083;28;103284;-59
2022/04/13 02:04:35;;;;;;;2.10;1.70;;;17.60;83.60;;;17.51;40.39;100822.06;4824620;28;97429;-60
2022/04/13 02:07:01;;;;;;;3.10;1.60;;;17.50;83.70;;;17.51;40.26;100822.06;4819535;28;104157;-60
2022/04/13 02:09:27;;;;;;;2.27;1.80;;;17.50;83.30;;;17.50;40.45;100829.22;4819191;29;120932;-60
2022/04/13 02:11:53;;;;;;;1.93;1.50;;;17.50;83.40;;;17.50;40.21;100821.22;4819448;28;97416;-60
2022/04/13 02:14:19;;;;;;;1.97;1.60;;;17.50;83.10;;;17.47;40.87;100825.84;4830767;29;97516;-59
2022/04/13 02:16:45;;;;;;;2.50;1.40;;;17.50;88.50;;;17.43;40.69;100824.34;4821382;29;97699;-60
2022/04/13 02:19:20;;;;;;;1.80;1.63;;;17.40;87.40;;;17.38;40.72;100832.63;4825783;29;98106;-59
2022/04/13 02:21:47;;;;;;;1.60;1.50;;;17.30;87.80;;;17.35;40.63;100826.59;4801620;28;98409;-58
2022/04/13 02:24:14;;;;;;;1.60;1.50;;;17.20;85.80;;;17.35;40.81;100827.47;4823059;29;96906;-60
2022/04/13 02:26:40;;;;;;;4.03;2.50;;;17.20;86.00;;;17.31;41.20;100839.25;4835245;28;97512;-63
2022/04/13 02:29:06;;;;;;;4.13;2.93;;;17.20;90.00;;;17.25;41.28;100843.19;4833309;28;98170;-57
2022/04/13 02:31:32;;;;;;;1.77;1.60;;;17.10;90.40;;;17.17;41.23;100840.09;4825701;29;97439;-59
2022/04/13 02:33:58;;;;;;;1.73;1.63;;;17.00;90.20;;;17.14;41.03;100839.44;4822128;29;100085;-60
2022/04/13 02:36:24;;;;;;;2.87;1.80;;;16.90;86.90;;;17.11;41.39;100844.94;4829335;28;96942;-60
2022/04/13 02:38:50;;;;;;;2.03;1.50;;;16.90;89.00;;;17.10;40.95;100848.56;4821168;28;97568;-59
2022/04/13 02:41:16;;;;;;;1.97;1.40;;;16.90;85.90;;;17.12;41.21;100847.53;4824887;28;97359;-59
2022/04/13 02:43:42;;;;;;;2.93;2.07;;;17.00;87.50;;;17.09;41.60;100847.72;4821840;28;96916;-58
2022/04/13 02:46:07;;;;;;;2.07;1.80;;;16.90;90.60;;;17.07;41.27;100851.41;4825454;29;116997;-60
2022/04/13 02:48:33;;;;;;;6.93;3.00;;;16.90;86.00;;;17.04;44.24;100856.91;4814836;28;97443;-60
2022/04/13 02:50:59;;;;;;;1.93;1.57;;;16.90;92.00;;;17.02;41.53;100856.16;4822172;29;124840;-60
2022/04/13 02:53:26;;;;;;;4.23;1.90;;;16.80;89.00;;;17.00;41.35;100853.56;4824678;29;116671;-60
2022/04/13 02:55:53;;;;;;;2.80;2.10;;;16.80;89.60;;;16.97;41.45;100861.75;4818579;28;97086;-60
2022/04/13 02:58:19;;;;;;;1.57;1.47;;;16.80;90.60;;;16.97;41.60;100858.25;4818172;29;97531;-60
2022/04/13 03:00:45;;;;;;;1.80;1.63;;;16.80;88.50;;;16.98;41.36;100865.28;4822356;29;99155;-60
2022/04/13 03:03:10;;;;;;;2.03;1.80;;;16.80;88.00;;;16.99;41.50;100867.00;4814582;28;96769;-60
2022/04/13 03:05:37;;;;;;;1.90;1.57;;;16.80;89.10;;;16.98;41.59;100870.59;4821533;28;118972;-58
2022/04/13 03:08:04;;;;;;;1.67;1.57;;;16.80;89.50;;;16.99;41.58;100867.00;4819288;29;97764;-60
2022/04/13 03:10:30;;;;;;;1.97;1.80;;;16.80;87.00;;;17.00;41.55;100871.38;4814829;29;97150;-56
2022/04/13 03:12:58;;;;;;;3.00;2.10;;;16.80;89.10;;;16.99;41.87;100867.84;4821558;29;96997;-58
2022/04/13 03:15:26;;;;;;;2.10;1.60;;;16.80;90.10;;;16.98;41.69;100875.94;4803488;28;99657;-58
2022/04/13 03:17:51;;;;;;;1.60;1.50;;;16.80;88.60;;;17.00;41.35;100868.72;4819720;28;98991;-59
2022/04/13 03:20:18;;;;;;;1.63;1.53;;;16.80;86.80;;;17.02;41.55;100866.81;4807487;29;99211;-56
2022/04/13 03:22:50;;;;;;;1.70;1.60;;;16.90;86.60;;;17.02;41.70;100869.47;4819390;29;97344;-58
2022/04/13 03:25:16;;;;;;;1.60;1.50;;;16.90;90.10;;;17.01;41.51;100875.75;4821323;29;97274;-57
2022/04/13 03:27:42;;;;;;;1.67;1.50;;;16.90;89.50;;;17.00;41.78;100874.03;4819653;28;97636;-53
2022/04/13 03:30:08;;;;;;;2.27;1.47;;;16.80;89.40;;;17.03;41.48;100871.19;4820287;28;120198;-58
2022/04/13 03:32:40;;;;;;;1.60;1.50;;;16.90;86.60;;;17.08;41.25;100871.78;4823524;29;99415;-58
2022/04/13 03:35:10;;;;;;;1.63;1.53;;;17.00;86.30;;;17.14;41.25;100879.41;4819933;28;97103;-59
2022/04/13 03:37:37;;;;;;;1.80;1.53;;;17.10;85.50;;;17.19;40.92;100880.00;4824461;29;98136;-58
2022/04/13 03:40:04;;;;;;;1.87;1.77;;;17.20;85.20;;;17.24;41.19;100884.13;4821126;28;99359;-58
2022/04/13 03:42:35;;;;;;;1.80;1.67;;;17.20;85.20;;;17.28;40.95;100890.13;4822249;29;97143;-56
2022/04/13 03:45:11;;;;;;;1.60;1.43;;;17.30;84.70;;;17.33;40.78;100882.69;4818682;28;97301;-57
2022/04/13 03:47:38;;;;;;;1.77;1.37;;;17.30;84.50;;;17.35;40.59;100886.13;4824397;29;97595;-55
2022/04/13 03:50:05;;;;;;;2.57;1.70;;;17.40;84.80;;;17.32;41.15;100891.63;4822525;28;101888;-55
2022/04/13 03:52:35;;;;;;;2.13;1.43;;;17.30;88.20;;;17.33;40.88;100888.03;4827123;29;97243;-58
2022/04/13 03:55:04;;;;;;;1.47;1.37;;;17.30;84.80;;;17.34;40.81;100891.53;4812718;29;97374;-58
2022/04/13 03:57:30;;;;;;;1.63;1.37;;;17.30;84.60;;;17.35;40.64;100891.44;4827694;29;97332;-57
2022/04/13 03:59:56;;;;;;;1.60;1.50;;;17.40;84.50;;;17.35;41.05;100899.44;4836501;28;105787;-56
2022/04/13 04:02:22;;;;;;;2.17;1.87;;;17.30;85.80;;;17.31;41.63;100903.25;4821297;29;96941;-58
2022/04/13 04:04:48;;;;;;;3.50;2.67;;;17.20;90.00;;;17.24;41.53;100909.91;4818995;28;97238;-59
2022/04/13 04:07:15;;;;;;;7.67;3.87;;;17.10;90.20;;;17.12;44.13;100915.97;4824860;29;97364;-56
2022/04/13 04:09:40;;;;;;;4.63;1.90;;;16.90;92.10;;;16.96;42.25;100913.34;4823449;28;98386;-58
2022/04/13 04:12:07;;;;;;;2.50;1.80;;;16.70;92.20;;;16.89;41.99;100920.81;4825533;29;115846;-58
2022/04/13 04:14:33;;;;;;;2.07;1.67;;;16.60;91.40;;;16.83;42.16;100918.50;4827602;29;96996;-60
2022/04/13 04:16:58;;;;;;;3.93;3.10;;;16.50;91.40;;;16.78;42.40;100923.25;4821832;28;112721;-58
2022/04/13 04:19:24;;;;;;;2.10;1.60;;;16.50;92.30;;;16.74;42.18;100927.03;4831404;29;97091;-58
2022/04/13 04:21:50;;;;;;;2.00;1.80;;;16.40;91.20;;;16.70;42.31;100922.81;4825381;28;97466;-58
2022/04/13 04:24:15;;;;;;;3.93;2.07;;;16.40;92.20;;;16.67;42.74;100920.34;4818488;29;96927;-58
2022/04/13 04:26:42;;;;;;;2.97;1.77;;;16.40;92.20;;;16.64;42.53;100925.81;4823528;29;116721;-59
2022/04/13 04:29:08;;;;;;;3.00;2.27;;;16.30;92.00;;;16.62;42.62;100927.69;4826998;28;97343;-58
2022/04/13 04:31:53;;;;;;;4.30;2.00;;;16.30;92.40;;;16.56;42.62;100928.03;4833805;28;101658;-59
2022/04/13 04:34:23;;;;;;;2.23;1.80;;;16.20;92.20;;;16.55;42.74;100926.31;4819577;29;104195;-53
2022/04/13 04:36:49;;;;;;;1.50;1.40;;;16.20;90.80;;;16.56;42.76;100928.03;4816837;29;97900;-57
2022/04/13 04:39:16;;;;;;;2.50;1.83;;;16.30;91.30;;;16.54;42.86;100929.94;4830364;28;97030;-58
2022/04/13 04:41:42;;;;;;;3.27;1.97;;;16.30;92.60;;;16.55;42.63;100928.97;4819482;29;96871;-55
2022/04/13 04:44:13;;;;;;;7.27;4.33;;;16.20;91.80;;;16.56;43.64;100933.34;4810600;28;97254;-55
2022/04/13 04:46:39;;;;;;;10.27;3.67;;;16.30;93.10;;;16.53;43.09;100933.53;4813146;28;98590;-57
2022/04/13 04:49:06;;;;;;;4.80;2.80;;;16.20;92.50;;;16.52;42.84;100932.69;4817416;29;104138;-56
2022/04/13 04:51:32;;;;;;;1.60;1.50;;;16.20;92.20;;;16.54;42.57;100929.94;4827405;29;97171;-57
2022/04/13 04:53:59;;;;;;;4.80;2.77;;;16.30;91.30;;;16.53;43.05;100933.53;4822995;29;97333;-58
2022/04/13 04:56:26;;;;;;;2.47;1.80;;;16.30;92.00;;;16.53;43.03;100934.41;4821488;29;98635;-59
2022/04/13 04:58:51;;;;;;;2.20;1.90;;;16.30;91.90;;;16.56;42.82;100944.00;4826937;29;98510;-58
2022/04/13 05:01:18;;;;;;;2.20;2.00;;;16.30;91.20;;;16.58;42.69;100942.13;4824346;29;113414;-57
2022/04/13 05:03:48;;;;;;;3.40;1.80;;;16.30;91.60;;;16.59;42.57;100944.69;4820414;29;97292;-58
2022/04/13 05:06:21;;;;;;;3.13;2.00;;;16.40;91.80;;;16.60;42.66;100938.41;4820403;29;98644;-55
2022/04/13 05:08:47;;;;;;;6.97;3.77;;;16.40;92.40;;;16.60;42.98;100946.41;4820357;29;97154;-56
2022/04/13 05:11:13;;;;;;;5.60;3.40;;;16.30;93.10;;;16.59;42.98;100943.84;4827664;29;96793;-56
2022/04/13 05:13:39;;;;;;;6.20;3.10;;;16.30;93.10;;;16.59;42.90;100946.50;4825471;29;97604;-63
2022/04/13 05:16:06;;;;;;;2.07;1.87;;;16.30;93.10;;;16.58;42.78;100950.09;4820061;29;125013;-57
2022/04/13 05:18:32;;;;;;;2.63;1.90;;;16.20;92.90;;;16.59;42.90;100941.16;4826490;29;97765;-59
2022/04/13 05:20:58;;;;;;;3.93;2.53;;;16.30;92.40;;;16.61;42.77;100948.13;4827186;28;97481;-56
2022/04/13 05:23:23;;;;;;;3.10;2.70;;;16.30;91.90;;;16.64;43.10;100952.44;4826367;29;114437;-57
2022/04/13 05:25:49;;;;;;;6.53;3.33;;;16.40;92.50;;;16.61;43.02;100956.13;4821884;29;104779;-57
2022/04/13 05:28:15;;;;;;;7.13;3.70;;;16.40;93.20;;;16.60;43.08;100956.19;4825213;29;113709;-54
2022/04/13 05:30:41;;;;;;;24.10;8.13;;;16.30;93.50;;;16.59;43.51;100954.47;4830629;28;96996;-57
2022/04/13 05:33:07;;;;;;;3.10;2.53;;;16.30;93.80;;;16.60;43.25;100966.84;4825515;29;103782;-56
2022/04/13 05:35:33;;;;;;;8.27;3.77;;;16.30;93.40;;;16.59;43.57;100960.66;4824872;29;96858;-53
2022/04/13 05:38:02;;;;;;;7.00;3.50;;;16.30;93.60;;;16.57;43.48;100962.56;4820854;29;118121;-57
2022/04/13 05:40:28;;;;;;;7.83;4.83;;;16.30;94.10;;;16.53;44.94;100971.69;4824641;29;96635;-60
2022/04/13 05:42:54;;;;;;;4.50;3.50;;;16.20;95.60;;;16.50;43.90;100981.66;4821970;28;97039;-59
2022/04/13 05:45:20;;;;;;;8.63;4.33;;;16.10;95.00;;;16.47;44.21;100977.31;4825303;29;98463;-57
2022/04/13 05:47:46;;;;;;;4.80;3.03;;;16.10;95.40;;;16.46;43.70;100980.06;4819416;29;99549;-57
2022/04/13 05:50:13;;;;;;;6.23;3.33;;;16.10;95.10;;;16.46;43.98;100982.72;4827391;28;97351;-59
2022/04/13 05:52:44;;;;;;;5.97;3.50;;;16.10;95.30;;;16.46;43.77;100990.72;4823659;29;97649;-62
2022/04/13 05:55:22;;;;;;;3.47;2.80;;;16.10;95.30;;;16.46;43.77;100990.72;4773297;29;102585;-57
2022/04/13 05:57:47;;;;;;;5.37;3.17;;;16.10;94.80;;;16.45;43.88;100997.00;4791840;28;97090;-56
2022/04/13 06:00:14;;;;;;;3.90;2.30;;;16.10;94.70;;;16.47;43.40;100997.75;4826556;29;97248;-57
2022/04/13 06:02:41;;;;;;;5.03;2.90;;;16.20;94.00;;;16.50;43.59;100992.28;4822874;29;96893;-62
2022/04/13 06:05:09;;;;;;;5.17;2.50;;;16.20;94.10;;;16.53;43.79;100998.31;4823634;29;103122;-59
2022/04/13 06:07:35;;;;;;;10.37;5.17;;;16.30;94.60;;;16.54;44.67;100999.16;4824134;29;97623;-59
2022/04/13 06:10:03;;;;;;;8.80;4.40;;;16.30;95.60;;;16.54;43.99;100994.69;4817399;29;98666;-57
2022/04/13 06:12:29;;;;;;;10.50;4.40;;;16.30;95.20;;;16.56;44.13;101002.59;4823171;29;97113;-57
2022/04/13 06:15:07;;;;;;;10.37;5.23;;;16.30;95.70;;;16.56;45.11;101005.25;4820586;28;114803;-58
2022/04/13 06:17:33;;;;;;;11.00;5.67;;;16.30;96.50;;;16.53;44.92;101014.28;4822473;29;97760;-52
2022/04/13 06:20:01;;;;;;;11.47;5.37;;;16.20;96.20;;;16.56;44.73;101023.91;4814169;28;97191;-54
2022/04/13 06:22:34;;;;;;;10.70;4.90;;;16.30;95.60;;;16.57;45.10;101028.28;4810431;29;96779;-56
2022/04/13 06:25:04;;;;;;;8.40;5.20;;;16.30;95.40;;;16.56;45.82;101039.88;4813602;28;97924;-56
2022/04/13 06:27:31;;;;;;;9.10;5.90;;;16.30;95.50;;;16.57;44.60;101045.13;4823872;29;97130;-55
2022/04/13 06:29:56;;;;;;;8.53;5.80;;;16.30;95.30;;;16.57;44.81;101036.28;4818599;28;97512;-59
2022/04/13 06:32:31;;;;;;;6.43;3.77;;;16.30;95.40;;;16.62;43.85;101039.53;4818607;29;97935;-58
2022/04/13 06:34:59;;;;;;;8.90;5.63;;;16.40;94.20;;;16.64;45.98;101043.00;4805598;28;98448;-59
2022/04/13 06:37:26;;;;;;;6.73;4.50;;;16.40;96.60;;;16.66;43.87;101043.78;4807182;29;97964;-57
2022/04/13 06:39:52;;;;;;;6.37;4.30;;;16.50;94.80;;;16.69;44.36;101046.28;4799685;29;98069;-59
2022/04/13 06:42:20;;;;;;;7.03;3.60;;;16.50;95.70;;;16.69;44.25;101046.28;4807729;29;98971;-55
2022/04/13 06:44:46;;;;;;;6.53;4.20;;;16.60;96.00;;;16.72;43.87;101046.13;4806090;28;98433;-56
2022/04/13 06:47:11;;;;;;;2.30;2.10;;;16.60;95.40;;;16.75;43.22;101045.94;4802338;29;100272;-59
2022/04/13 06:49:39;;;;;;;4.60;3.30;;;16.60;93.70;;;16.78;43.24;101043.13;4811406;28;120533;-58
2022/04/13 06:52:05;;;;;;;3.73;2.40;;;16.60;93.90;;;16.81;43.42;101040.28;4806408;29;99239;-54
2022/04/13 06:54:31;;;;;;;10.10;4.90;;;16.70;93.70;;;16.85;43.36;101047.16;4808451;29;97912;-59
2022/04/13 06:56:56;;;;;;;5.57;3.67;;;16.70;95.10;;;16.90;43.33;101050.41;4807128;29;122895;-59
2022/04/13 06:59:22;;;;;;;12.87;6.80;;;16.80;94.00;;;16.97;43.77;101055.41;4807847;29;108541;-55
2022/04/13 07:01:48;;;;;;;8.37;5.10;;;16.90;94.80;;;16.99;43.88;101053.53;4805591;29;100977;-59
2022/04/13 07:04:14;;;;;;;2.17;1.97;;;16.90;95.20;;;17.02;42.69;101058.69;4806933;28;97344;-59
2022/04/13 07:06:39;;;;;;;2.60;1.90;;;16.90;92.20;;;17.06;42.38;101049.56;4803905;29;98713;-61
2022/04/13 07:09:05;;;;;;;2.30;2.00;;;17.00;90.80;;;17.13;42.06;101056.28;4807685;29;103407;-53
2022/04/13 07:11:31;;;;;;;2.20;1.90;;;17.10;90.30;;;17.20;42.19;101057.63;4807900;29;121254;-56
2022/04/13 07:13:57;;;;;;;9.90;5.27;;;17.20;90.00;;;17.24;45.87;101060.06;4798878;29;97391;-59
2022/04/13 07:16:23;;;;;;;3.10;2.10;;;17.20;93.90;;;17.29;41.99;101050.94;4792882;29;97573;-57
2022/04/13 07:18:49;;;;;;;9.87;6.43;;;17.30;89.40;;;17.33;45.55;101069.31;4790281;29;114095;-56
2022/04/13 07:21:17;;;;;;;8.90;6.47;;;17.40;94.00;;;17.36;42.70;101063.84;4793789;29;98466;-60
2022/04/13 07:23:43;;;;;;;12.97;7.70;;;17.40;90.10;;;17.35;48.59;101067.41;4790182;29;98353;-58
2022/04/13 07:26:09;;;;;;;12.93;7.77;;;17.40;94.90;;;17.35;43.30;101067.41;4808479;29;98357;-60
2022/04/13 07:28:35;;;;;;;10.23;6.77;;;17.40;92.10;;;17.36;43.89;101068.28;4806732;29;98140;-59
2022/04/13 07:31:00;;;;;;;13.83;8.30;;;17.40;93.00;;;17.31;50.30;101060.56;4793685;29;100219;-59
2022/04/13 07:33:26;;;;;;;13.13;7.67;;;17.30;96.10;;;17.29;48.50;101073.13;4795098;29;127013;-58
2022/04/13 07:35:52;;;;;;;12.37;6.70;;;17.20;95.70;;;17.27;42.73;101064.34;4788332;29;103210;-58
2022/04/13 07:38:18;;;;;;;11.27;7.27;;;17.20;91.60;;;17.30;42.92;101069.50;4803142;29;98605;-58
2022/04/13 07:40:44;;;;;;;12.90;6.33;;;17.30;90.70;;;17.33;42.76;101073.78;4799824;29;98539;-55
2022/04/13 07:43:10;;;;;;;9.67;6.87;;;17.30;90.30;;;17.37;42.37;101080.69;4804554;29;99042;-60
2022/04/13 07:45:36;;;;;;;14.00;7.57;;;17.40;90.20;;;17.40;48.39;101076.03;4806196;29;106025;-57
2022/04/13 07:48:02;;;;;;;10.73;6.57;;;17.50;94.00;;;17.43;42.27;101075.84;4801218;29;98761;-56
2022/04/13 07:50:28;;;;;;;13.63;8.03;;;17.50;89.80;;;17.46;47.63;101081.00;4808396;29;98544;-59
2022/04/13 07:52:54;;;;;;;14.97;8.37;;;17.50;92.90;;;17.48;49.10;101086.25;4794365;29;126763;-60
2022/04/13 07:55:20;;;;;;;14.53;8.03;;;17.50;95.40;;;17.49;43.14;101086.16;4799295;29;122052;-59
2022/04/13 07:57:46;;;;;;;14.27;8.60;;;17.60;91.20;;;17.50;49.66;101090.56;4810063;29;98824;-59
2022/04/13 08:00:13;;;;;;;11.93;7.63;;;17.60;95.10;;;17.47;47.63;101093.38;4807900;29;97412;-57
2022/04/13 08:02:43;;;;;;;13.77;8.57;;;17.60;94.30;;;17.48;48.73;101103.09;4804849;29;97657;-62
2022/04/13 08:05:14;;;;;;;15.03;8.30;;;17.50;95.00;;;17.47;49.96;101098.72;4802179;29;97089;-57
2022/04/13 08:07:42;;;;;;;13.83;8.73;;;17.50;95.70;;;17.43;49.35;101099.84;4803612;29;98125;-64
2022/04/13 08:10:09;;;;;;;16.80;8.60;;;17.50;95.00;;;17.45;46.17;101105.97;4804165;29;99288;-59
2022/04/13 08:12:34;;;;;;;15.50;9.07;;;17.50;93.50;;;17.48;50.45;101104.91;4805187;29;97549;-57
2022/04/13 08:15:04;;;;;;;13.90;9.20;;;17.60;95.20;;;17.50;50.99;101114.56;4802586;29;97981;-58
2022/04/13 08:17:30;;;;;;;16.27;8.53;;;17.60;96.40;;;17.51;49.03;101110.97;4806336;29;96877;-59
2022/04/13 08:19:55;;;;;;;11.60;6.70;;;17.60;94.80;;;17.52;47.02;101112.66;4801728;29;97519;-59
2022/04/13 08:22:26;;;;;;;16.20;8.30;;;17.70;92.80;;;17.57;50.24;101120.41;4803625;28;96979;-59
2022/04/13 08:24:52;;;;;;;14.83;9.13;;;17.70;95.50;;;17.59;49.32;101117.66;4798897;28;97201;-57
2022/04/13 08:27:18;;;;;;;16.20;9.13;;;17.70;95.00;;;17.61;50.81;101118.41;4803145;29;97229;-59
2022/04/13 08:29:46;;;;;;;12.87;8.30;;;17.70;96.40;;;17.63;49.81;101124.50;4799355;29;96813;-57
2022/04/13 08:32:15;;;;;;;15.43;9.10;;;17.70;95.10;;;17.66;51.62;101125.22;4821301;28;97300;-59
2022/04/13 08:34:41;;;;;;;14.13;9.37;;;17.70;96.30;;;17.67;52.04;101123.41;4807831;29;97548;-59
2022/04/13 08:37:08;;;;;;;14.47;8.23;;;17.80;97.10;;;17.67;51.47;101126.94;4809206;29;97136;-59
2022/04/13 08:39:33;;;;;;;5.07;3.43;;;17.70;96.80;;;17.67;45.02;101126.06;4810416;29;97320;-58
2022/04/13 08:42:12;;;;;;;15.50;8.97;;;17.80;92.80;;;17.71;49.46;101127.66;4808685;29;119971;-59
2022/04/13 08:44:50;;;;;;;17.07;9.03;;;17.80;96.30;;;17.74;52.00;101127.47;4807808;29;98216;-59
2022/04/13 08:47:22;;;;;;;19.10;9.70;;;17.80;96.80;;;17.75;52.02;101129.19;4807027;29;97224;-58
2022/04/13 08:49:50;;;;;;;17.53;9.47;;;17.80;97.10;;;17.67;49.34;101128.75;4808947;28;96989;-59
2022/04/13 08:52:24;;;;;;;19.70;10.13;;;17.80;95.10;;;17.75;51.43;101131.84;4811479;29;97953;-59
2022/04/13 08:55:05;;;;;;;15.87;9.77;;;17.80;96.50;;;17.78;51.57;101134.31;4806585;29;97337;-59
2022/04/13 08:57:41;;;;;;;16.30;10.53;;;17.90;96.70;;;17.81;51.66;101144.84;4803368;29;97323;-60
2022/04/13 09:00:16;;;;;;;25.80;15.27;;;17.90;96.90;;;17.80;52.27;101145.81;4804782;29;97197;-57
2022/04/13 09:03:16;;;;;;;20.27;11.30;;;17.90;97.40;;;17.80;52.00;101148.47;4800857;29;98377;-59
2022/04/13 09:05:46;;;;;;;17.97;10.60;;;18.00;97.00;;;17.82;51.72;101149.22;4802193;29;97289;-61
2022/04/13 09:08:23;;;;;;;19.30;10.10;;;17.90;97.10;;;17.85;49.39;101135.72;4803822;29;97580;-59
2022/04/13 09:10:52;;;;;;;16.37;10.87;;;17.90;95.20;;;17.88;52.97;101140.84;4801363;28;97431;-59
2022/04/13 09:13:21;;;;;;;21.10;11.53;;;18.00;97.70;;;17.92;51.89;101141.53;4804131;29;97445;-59
2022/04/13 09:15:47;;;;;;;19.60;11.47;;;18.00;97.20;;;17.96;52.46;101137.75;4799531;28;97141;-58
2022/04/13 09:18:13;;;;;;;17.03;10.80;;;18.10;97.60;;;17.87;50.96;101143.63;4803306;29;97259;-59
2022/04/13 09:20:40;;;;;;;19.80;10.43;;;18.10;96.40;;;17.96;51.43;101141.28;4803752;29;104150;-64
2022/04/13 09:23:07;;;;;;;19.90;11.87;;;18.10;97.20;;;18.02;52.04;101140.91;4788279;28;100536;-58
2022/04/13 09:25:54;;;;;;;17.27;12.13;;;18.20;97.20;;;18.08;49.29;101143.22;4784951;28;97552;-59
2022/04/13 09:28:21;;;;;;;19.40;10.33;;;18.20;96.60;;;18.08;51.29;101139.69;4786721;28;98027;-59
2022/04/13 09:30:47;;;;;;;16.93;9.83;;;18.30;96.10;;;18.11;51.33;101142.19;4805803;29;97650;-58
2022/04/13 09:33:12;;;;;;;16.93;10.77;;;18.30;96.60;;;18.12;47.54;101144.75;4793635;29;97660;-58
2022/04/13 09:35:38;;;;;;;9.80;6.97;;;18.30;95.40;;;18.13;46.07;101130.47;4794023;29;97328;-59
2022/04/13 09:38:34;;;;;;;17.23;11.03;;;18.30;93.00;;;18.18;51.70;101138.19;4789720;29;97028;-59
2022/04/13 09:41:17;;;;;;;11.93;9.23;;;18.40;96.90;;;18.16;50.74;101145.44;4743825;29;97310;-59
2022/04/13 09:43:56;;;;;;;18.60;10.40;;;18.40;95.80;;;18.19;51.32;101153.25;4793530;29;97672;-59
2022/04/13 09:46:31;;;;;;;21.60;13.93;;;18.40;96.70;;;18.28;49.08;101139.38;4805996;28;97251;-59
2022/04/13 09:49:18;;;;;;;19.33;10.40;;;18.50;95.90;;;18.31;50.99;101144.50;4793160;29;97016;-57
2022/04/13 09:51:50;;;;;;;14.40;10.20;;;18.60;96.60;;;18.37;50.75;101148.63;4790985;29;96934;-56
2022/04/13 09:54:26;;;;;;;15.97;8.80;;;18.60;96.20;;;18.38;50.79;101145.03;4793375;29;98580;-59
2022/04/13 09:56:56;;;;;;;14.87;8.50;;;18.60;96.30;;;18.41;49.33;101142.16;4759581;29;99465;-59
2022/04/13 09:59:27;;;;;;;13.57;8.90;;;18.60;95.40;;;18.43;47.85;101148.25;4795529;28;98577;-59
2022/04/13 10:01:53;;;;;;;13.53;8.47;;;18.70;94.90;;;18.42;45.42;101146.53;4781231;29;97421;-59
2022/04/13 10:04:27;;;;;;;17.37;9.13;;;18.60;92.80;;;18.36;48.38;101146.91;4785697;29;97583;-59
2022/04/13 10:06:53;;;;;;;15.47;8.03;;;18.60;95.10;;;18.33;50.95;101147.09;4802865;28;97608;-59
2022/04/13 10:09:19;;;;;;;16.50;6.97;;;18.60;95.60;;;18.41;49.16;101150.16;4787533;29;97470;-59
2022/04/13 10:12:01;;;;;;;16.03;8.47;;;18.70;95.50;;;18.41;48.01;101155.50;4787622;29;97357;-59